sensor_id;sensor_type;location;lat;lon;timestamp;temperature;humidity
73586;DHT22;61865;50.232;18.614;2022-11-15T00:00:20;5.20;99.90
73586;DHT22;61865;50.232;18.614;2022-11-15T00:02:43;5.20;99.90
73586;DHT22;61865;50.232;18.614;2022-11-15T00:05:05;5.30;99.90
73586;DHT22;61865;50.232;18.614;2022-11-15T00:07:27;5.30;99.90
73586;DHT22;61865;50.232;18.614;2022-11-15T00:09:48;5.30;99.90
73586;DHT22;61865;50.232;18.614;2022-11-15T00:12:10;5.40;99.90
73586;DHT22;61865;50.232;18.614;2022-11-15T00:14:32;5.40;99.90
73586;DHT22;61865;50.232;18.614;2022-11-15T00:16:53;5.30;99.90
73586;DHT22;61865;50.232;18.614;2022-11-15T00:19:17;5.20;99.90
73586;DHT22;61865;50.232;18.614;2022-11-15T00:21:38;5.20;99.90
73586;DHT22;61865;50.232;18.614;2022-11-15T00:24:00;5.10;99.90
73586;DHT22;61865;50.232;18.614;2022-11-15T00:26:22;5.10;99.90
73586;DHT22;61865;50.232;18.614;2022-11-15T00:28:43;5.10;99.90
73586;DHT22;61865;50.232;18.614;2022-11-15T00:31:06;5.10;99.90
73586;DHT22;61865;50.232;18.614;2022-11-15T00:33:28;5.00;99.90
73586;DHT22;61865;50.232;18.614;2022-11-15T00:35:51;5.10;99.90
73586;DHT22;61865;50.232;18.614;2022-11-15T00:38:13;5.00;99.90
73586;DHT22;61865;50.232;18.614;2022-11-15T00:40:34;5.10;99.90
73586;DHT22;61865;50.232;18.614;2022-11-15T00:42:56;5.20;99.90
73586;DHT22;61865;50.232;18.614;2022-11-15T00:45:18;5.20;99.90
73586;DHT22;61865;50.232;18.614;2022-11-15T00:47:39;5.20;99.90
73586;DHT22;61865;50.232;18.614;2022-11-15T00:50:01;5.20;99.90
73586;DHT22;61865;50.232;18.614;2022-11-15T00:52:24;5.10;99.90
73586;DHT22;61865;50.232;18.614;2022-11-15T00:54:46;5.10;99.90
73586;DHT22;61865;50.232;18.614;2022-11-15T00:57:08;5.00;99.90
73586;DHT22;61865;50.232;18.614;2022-11-15T00:59:29;5.00;99.90
73586;DHT22;61865;50.232;18.614;2022-11-15T01:01:51;5.00;99.90
73586;DHT22;61865;50.232;18.614;2022-11-15T01:04:13;5.00;99.90
73586;DHT22;61865;50.232;18.614;2022-11-15T01:06:35;5.00;99.90
73586;DHT22;61865;50.232;18.614;2022-11-15T01:08:58;5.10;99.90
73586;DHT22;61865;50.232;18.614;2022-11-15T01:11:20;5.10;99.90
73586;DHT22;61865;50.232;18.614;2022-11-15T01:13:41;5.10;99.90
73586;DHT22;61865;50.232;18.614;2022-11-15T01:16:06;4.90;99.90
73586;DHT22;61865;50.232;18.614;2022-11-15T01:18:28;4.90;99.90
73586;DHT22;61865;50.232;18.614;2022-11-15T01:20:50;4.90;99.90
73586;DHT22;61865;50.232;18.614;2022-11-15T01:23:12;4.80;99.90
73586;DHT22;61865;50.232;18.614;2022-11-15T01:25:35;4.80;99.90
73586;DHT22;61865;50.232;18.614;2022-11-15T01:27:57;4.80;99.90
73586;DHT22;61865;50.232;18.614;2022-11-15T01:30:18;4.70;99.90
73586;DHT22;61865;50.232;18.614;2022-11-15T01:32:40;4.80;99.90
73586;DHT22;61865;50.232;18.614;2022-11-15T01:35:02;4.80;99.90
73586;DHT22;61865;50.232;18.614;2022-11-15T01:37:23;4.70;99.90
73586;DHT22;61865;50.232;18.614;2022-11-15T01:39:45;4.70;99.90
73586;DHT22;61865;50.232;18.614;2022-11-15T01:42:09;4.70;99.90
73586;DHT22;61865;50.232;18.614;2022-11-15T01:44:41;4.60;99.90
73586;DHT22;61865;50.232;18.614;2022-11-15T01:47:04;4.60;99.90
73586;DHT22;61865;50.232;18.614;2022-11-15T01:49:27;4.60;99.90
73586;DHT22;61865;50.232;18.614;2022-11-15T01:51:50;4.70;99.90
73586;DHT22;61865;50.232;18.614;2022-11-15T01:54:13;4.60;99.90
73586;DHT22;61865;50.232;18.614;2022-11-15T01:56:37;4.60;99.90
73586;DHT22;61865;50.232;18.614;2022-11-15T01:59:05;4.60;99.90
73586;DHT22;61865;50.232;18.614;2022-11-15T02:01:28;4.60;99.90
73586;DHT22;61865;50.232;18.614;2022-11-15T02:03:52;4.50;99.90
73586;DHT22;61865;50.232;18.614;2022-11-15T02:06:16;4.50;99.90
73586;DHT22;61865;50.232;18.614;2022-11-15T02:08:38;4.50;99.90
73586;DHT22;61865;50.232;18.614;2022-11-15T02:11:00;4.60;99.90
73586;DHT22;61865;50.232;18.614;2022-11-15T02:13:22;4.60;99.90
73586;DHT22;61865;50.232;18.614;2022-11-15T02:15:47;4.60;99.90
73586;DHT22;61865;50.232;18.614;2022-11-15T02:18:15;4.60;99.90
73586;DHT22;61865;50.232;18.614;2022-11-15T02:23:38;4.50;99.90
73586;DHT22;61865;50.232;18.614;2022-11-15T02:26:08;4.60;99.90
73586;DHT22;61865;50.232;18.614;2022-11-15T02:28:48;4.70;99.90
73586;DHT22;61865;50.232;18.614;2022-11-15T02:31:15;4.70;99.90
73586;DHT22;61865;50.232;18.614;2022-11-15T02:33:41;4.60;99.90
73586;DHT22;61865;50.232;18.614;2022-11-15T02:36:06;4.60;99.90
73586;DHT22;61865;50.232;18.614;2022-11-15T02:38:31;4.50;99.90
73586;DHT22;61865;50.232;18.614;2022-11-15T02:40:56;4.40;99.90
73586;DHT22;61865;50.232;18.614;2022-11-15T02:43:21;4.40;99.90
73586;DHT22;61865;50.232;18.614;2022-11-15T02:46:13;4.40;99.90
73586;DHT22;61865;50.232;18.614;2022-11-15T02:48:37;4.40;99.90
73586;DHT22;61865;50.232;18.614;2022-11-15T02:50:59;4.40;99.90
73586;DHT22;61865;50.232;18.614;2022-11-15T02:53:23;4.40;99.90
73586;DHT22;61865;50.232;18.614;2022-11-15T02:55:46;4.30;99.90
73586;DHT22;61865;50.232;18.614;2022-11-15T02:58:18;4.30;99.90
73586;DHT22;61865;50.232;18.614;2022-11-15T03:00:42;4.20;99.90
73586;DHT22;61865;50.232;18.614;2022-11-15T03:05:49;4.10;99.90
73586;DHT22;61865;50.232;18.614;2022-11-15T03:08:14;4.20;99.90
73586;DHT22;61865;50.232;18.614;2022-11-15T03:10:42;4.10;99.90
73586;DHT22;61865;50.232;18.614;2022-11-15T03:13:08;4.10;99.90
73586;DHT22;61865;50.232;18.614;2022-11-15T03:15:32;4.10;99.90
73586;DHT22;61865;50.232;18.614;2022-11-15T03:17:58;4.00;99.90
73586;DHT22;61865;50.232;18.614;2022-11-15T03:20:22;3.90;99.90
73586;DHT22;61865;50.232;18.614;2022-11-15T03:22:47;4.00;99.90
73586;DHT22;61865;50.232;18.614;2022-11-15T03:25:09;3.90;99.90
73586;DHT22;61865;50.232;18.614;2022-11-15T03:27:33;4.00;99.90
73586;DHT22;61865;50.232;18.614;2022-11-15T03:29:58;3.90;99.90
73586;DHT22;61865;50.232;18.614;2022-11-15T03:32:22;4.00;99.90
73586;DHT22;61865;50.232;18.614;2022-11-15T03:34:46;4.00;99.90
73586;DHT22;61865;50.232;18.614;2022-11-15T03:37:09;4.00;99.90
73586;DHT22;61865;50.232;18.614;2022-11-15T03:39:34;4.00;99.90
73586;DHT22;61865;50.232;18.614;2022-11-15T03:41:57;4.00;99.90
73586;DHT22;61865;50.232;18.614;2022-11-15T03:44:25;3.90;99.90
73586;DHT22;61865;50.232;18.614;2022-11-15T03:46:49;3.90;99.90
73586;DHT22;61865;50.232;18.614;2022-11-15T03:49:15;3.80;99.90
73586;DHT22;61865;50.232;18.614;2022-11-15T03:51:38;3.80;99.90
73586;DHT22;61865;50.232;18.614;2022-11-15T03:54:02;3.80;99.90
73586;DHT22;61865;50.232;18.614;2022-11-15T03:56:25;3.80;99.90
73586;DHT22;61865;50.232;18.614;2022-11-15T03:58:47;3.70;99.90
73586;DHT22;61865;50.232;18.614;2022-11-15T04:01:08;3.70;99.90
73586;DHT22;61865;50.232;18.614;2022-11-15T04:03:30;3.60;99.90
73586;DHT22;61865;50.232;18.614;2022-11-15T04:05:52;3.70;99.90
73586;DHT22;61865;50.232;18.614;2022-11-15T04:08:14;3.60;99.90
73586;DHT22;61865;50.232;18.614;2022-11-15T04:10:35;3.60;99.90
73586;DHT22;61865;50.232;18.614;2022-11-15T04:12:59;3.60;99.90
73586;DHT22;61865;50.232;18.614;2022-11-15T04:15:21;3.60;99.90
73586;DHT22;61865;50.232;18.614;2022-11-15T04:17:44;3.60;99.90
73586;DHT22;61865;50.232;18.614;2022-11-15T04:20:07;3.50;99.90
73586;DHT22;61865;50.232;18.614;2022-11-15T04:22:47;3.50;99.90
73586;DHT22;61865;50.232;18.614;2022-11-15T04:25:26;3.50;99.90
73586;DHT22;61865;50.232;18.614;2022-11-15T04:27:48;3.40;99.90
73586;DHT22;61865;50.232;18.614;2022-11-15T04:30:11;3.40;99.90
73586;DHT22;61865;50.232;18.614;2022-11-15T04:32:33;3.40;99.90
73586;DHT22;61865;50.232;18.614;2022-11-15T04:34:55;3.30;99.90
73586;DHT22;61865;50.232;18.614;2022-11-15T04:37:16;3.30;99.90
73586;DHT22;61865;50.232;18.614;2022-11-15T04:39:37;3.30;99.90
73586;DHT22;61865;50.232;18.614;2022-11-15T04:41:59;3.30;99.90
73586;DHT22;61865;50.232;18.614;2022-11-15T04:44:21;3.20;99.90
73586;DHT22;61865;50.232;18.614;2022-11-15T04:46:44;3.20;99.90
73586;DHT22;61865;50.232;18.614;2022-11-15T04:49:05;3.20;99.90
73586;DHT22;61865;50.232;18.614;2022-11-15T04:51:27;3.20;99.90
73586;DHT22;61865;50.232;18.614;2022-11-15T04:53:49;3.10;99.90
73586;DHT22;61865;50.232;18.614;2022-11-15T04:56:11;3.10;99.90
73586;DHT22;61865;50.232;18.614;2022-11-15T04:58:33;3.20;99.90
73586;DHT22;61865;50.232;18.614;2022-11-15T05:00:55;3.10;99.90
73586;DHT22;61865;50.232;18.614;2022-11-15T05:03:18;3.10;99.90
73586;DHT22;61865;50.232;18.614;2022-11-15T05:05:57;3.00;99.90
73586;DHT22;61865;50.232;18.614;2022-11-15T05:08:19;3.00;99.90
73586;DHT22;61865;50.232;18.614;2022-11-15T05:10:41;2.90;99.90
73586;DHT22;61865;50.232;18.614;2022-11-15T05:13:03;2.80;99.90
73586;DHT22;61865;50.232;18.614;2022-11-15T05:15:24;2.80;99.90
73586;DHT22;61865;50.232;18.614;2022-11-15T05:17:46;2.80;99.90
73586;DHT22;61865;50.232;18.614;2022-11-15T05:20:10;2.80;99.90
73586;DHT22;61865;50.232;18.614;2022-11-15T05:22:31;2.80;99.90
73586;DHT22;61865;50.232;18.614;2022-11-15T05:24:53;2.90;99.90
73586;DHT22;61865;50.232;18.614;2022-11-15T05:27:15;2.80;99.90
73586;DHT22;61865;50.232;18.614;2022-11-15T05:29:37;2.80;99.90
73586;DHT22;61865;50.232;18.614;2022-11-15T05:31:58;2.70;99.90
73586;DHT22;61865;50.232;18.614;2022-11-15T05:34:20;2.60;99.90
73586;DHT22;61865;50.232;18.614;2022-11-15T05:36:44;2.60;99.90
73586;DHT22;61865;50.232;18.614;2022-11-15T05:39:07;2.60;99.90
73586;DHT22;61865;50.232;18.614;2022-11-15T05:41:30;2.60;99.90
73586;DHT22;61865;50.232;18.614;2022-11-15T05:43:53;2.60;99.90
73586;DHT22;61865;50.232;18.614;2022-11-15T05:46:15;2.60;99.90
73586;DHT22;61865;50.232;18.614;2022-11-15T05:48:36;2.50;99.90
73586;DHT22;61865;50.232;18.614;2022-11-15T05:50:59;2.50;99.90
73586;DHT22;61865;50.232;18.614;2022-11-15T05:53:22;2.50;99.90
73586;DHT22;61865;50.232;18.614;2022-11-15T05:55:45;2.50;99.90
73586;DHT22;61865;50.232;18.614;2022-11-15T05:58:07;2.40;99.90
73586;DHT22;61865;50.232;18.614;2022-11-15T06:00:29;2.40;99.90
73586;DHT22;61865;50.232;18.614;2022-11-15T06:02:50;2.40;99.90
73586;DHT22;61865;50.232;18.614;2022-11-15T06:05:12;2.40;99.90
73586;DHT22;61865;50.232;18.614;2022-11-15T06:07:34;2.40;99.90
73586;DHT22;61865;50.232;18.614;2022-11-15T06:09:57;2.40;99.90
73586;DHT22;61865;50.232;18.614;2022-11-15T06:12:19;2.30;99.90
73586;DHT22;61865;50.232;18.614;2022-11-15T06:14:40;2.30;99.90
73586;DHT22;61865;50.232;18.614;2022-11-15T06:17:02;2.30;99.90
73586;DHT22;61865;50.232;18.614;2022-11-15T06:19:24;2.40;99.90
73586;DHT22;61865;50.232;18.614;2022-11-15T06:21:46;2.40;99.90
73586;DHT22;61865;50.232;18.614;2022-11-15T06:24:07;2.50;99.90
73586;DHT22;61865;50.232;18.614;2022-11-15T06:26:31;2.50;99.90
73586;DHT22;61865;50.232;18.614;2022-11-15T06:28:52;2.50;99.90
73586;DHT22;61865;50.232;18.614;2022-11-15T06:31:14;2.50;99.90
73586;DHT22;61865;50.232;18.614;2022-11-15T06:33:36;2.40;99.90
73586;DHT22;61865;50.232;18.614;2022-11-15T06:35:59;2.50;99.90
73586;DHT22;61865;50.232;18.614;2022-11-15T06:38:21;2.40;99.90
73586;DHT22;61865;50.232;18.614;2022-11-15T06:40:43;2.40;99.90
73586;DHT22;61865;50.232;18.614;2022-11-15T06:43:06;2.50;99.90
73586;DHT22;61865;50.232;18.614;2022-11-15T06:45:28;2.50;99.90
73586;DHT22;61865;50.232;18.614;2022-11-15T06:47:49;2.50;99.90
73586;DHT22;61865;50.232;18.614;2022-11-15T06:50:11;2.60;99.90
73586;DHT22;61865;50.232;18.614;2022-11-15T06:52:33;2.60;99.90
73586;DHT22;61865;50.232;18.614;2022-11-15T06:54:54;2.70;99.90
73586;DHT22;61865;50.232;18.614;2022-11-15T06:57:16;2.70;99.90
73586;DHT22;61865;50.232;18.614;2022-11-15T06:59:39;2.80;99.90
73586;DHT22;61865;50.232;18.614;2022-11-15T07:02:01;2.80;99.90
73586;DHT22;61865;50.232;18.614;2022-11-15T07:04:23;2.90;99.90
73586;DHT22;61865;50.232;18.614;2022-11-15T07:06:45;2.90;99.90
73586;DHT22;61865;50.232;18.614;2022-11-15T07:09:10;3.00;99.90
73586;DHT22;61865;50.232;18.614;2022-11-15T07:11:32;3.10;99.90
73586;DHT22;61865;50.232;18.614;2022-11-15T07:13:54;3.10;99.90
73586;DHT22;61865;50.232;18.614;2022-11-15T07:16:17;3.20;99.90
73586;DHT22;61865;50.232;18.614;2022-11-15T07:18:39;3.30;99.90
73586;DHT22;61865;50.232;18.614;2022-11-15T07:21:01;3.40;99.90
73586;DHT22;61865;50.232;18.614;2022-11-15T07:23:23;3.40;99.90
73586;DHT22;61865;50.232;18.614;2022-11-15T07:25:45;3.50;99.90
73586;DHT22;61865;50.232;18.614;2022-11-15T07:28:07;3.60;99.90
73586;DHT22;61865;50.232;18.614;2022-11-15T07:30:28;3.70;99.90
73586;DHT22;61865;50.232;18.614;2022-11-15T07:32:53;3.80;99.90
73586;DHT22;61865;50.232;18.614;2022-11-15T07:35:15;3.90;99.90
73586;DHT22;61865;50.232;18.614;2022-11-15T07:37:36;4.00;99.90
73586;DHT22;61865;50.232;18.614;2022-11-15T07:39:58;4.10;99.90
73586;DHT22;61865;50.232;18.614;2022-11-15T07:42:20;4.10;99.90
73586;DHT22;61865;50.232;18.614;2022-11-15T07:44:59;4.20;99.90
73586;DHT22;61865;50.232;18.614;2022-11-15T07:47:20;4.30;99.90
73586;DHT22;61865;50.232;18.614;2022-11-15T07:49:43;4.30;99.90
73586;DHT22;61865;50.232;18.614;2022-11-15T07:52:06;4.40;99.90
73586;DHT22;61865;50.232;18.614;2022-11-15T07:54:28;4.50;99.90
73586;DHT22;61865;50.232;18.614;2022-11-15T07:56:49;4.60;99.90
73586;DHT22;61865;50.232;18.614;2022-11-15T07:59:11;4.60;99.90
73586;DHT22;61865;50.232;18.614;2022-11-15T08:01:33;4.70;99.90
73586;DHT22;61865;50.232;18.614;2022-11-15T08:03:54;4.80;99.90
73586;DHT22;61865;50.232;18.614;2022-11-15T08:06:17;4.90;99.90
73586;DHT22;61865;50.232;18.614;2022-11-15T08:08:39;4.90;99.90
73586;DHT22;61865;50.232;18.614;2022-11-15T08:11:01;5.00;99.90
73586;DHT22;61865;50.232;18.614;2022-11-15T08:13:24;5.10;99.90
73586;DHT22;61865;50.232;18.614;2022-11-15T08:15:50;5.20;99.90
73586;DHT22;61865;50.232;18.614;2022-11-15T08:18:14;5.20;99.90
73586;DHT22;61865;50.232;18.614;2022-11-15T08:20:36;5.30;99.90
73586;DHT22;61865;50.232;18.614;2022-11-15T08:22:59;5.40;99.90
73586;DHT22;61865;50.232;18.614;2022-11-15T08:25:24;5.40;99.90
73586;DHT22;61865;50.232;18.614;2022-11-15T08:27:47;5.60;99.90
73586;DHT22;61865;50.232;18.614;2022-11-15T08:30:09;5.70;99.90
73586;DHT22;61865;50.232;18.614;2022-11-15T08:32:31;5.70;99.90
73586;DHT22;61865;50.232;18.614;2022-11-15T08:34:53;5.80;99.90
73586;DHT22;61865;50.232;18.614;2022-11-15T08:37:15;5.90;99.90
73586;DHT22;61865;50.232;18.614;2022-11-15T08:39:38;6.00;99.90
73586;DHT22;61865;50.232;18.614;2022-11-15T08:41:59;6.10;99.90
73586;DHT22;61865;50.232;18.614;2022-11-15T08:44:21;6.20;99.90
73586;DHT22;61865;50.232;18.614;2022-11-15T08:46:45;6.40;99.90
73586;DHT22;61865;50.232;18.614;2022-11-15T08:49:06;6.50;99.90
73586;DHT22;61865;50.232;18.614;2022-11-15T08:51:28;6.60;99.90
73586;DHT22;61865;50.232;18.614;2022-11-15T08:53:50;6.70;99.90
73586;DHT22;61865;50.232;18.614;2022-11-15T08:56:14;6.80;99.90
73586;DHT22;61865;50.232;18.614;2022-11-15T08:58:36;7.00;99.90
73586;DHT22;61865;50.232;18.614;2022-11-15T09:00:57;7.10;99.90
73586;DHT22;61865;50.232;18.614;2022-11-15T09:03:20;7.20;99.90
73586;DHT22;61865;50.232;18.614;2022-11-15T09:05:41;7.30;99.90
73586;DHT22;61865;50.232;18.614;2022-11-15T09:08:03;7.40;99.90
73586;DHT22;61865;50.232;18.614;2022-11-15T09:10:25;7.60;99.90
73586;DHT22;61865;50.232;18.614;2022-11-15T09:12:49;7.70;99.90
73586;DHT22;61865;50.232;18.614;2022-11-15T09:15:10;7.90;99.90
73586;DHT22;61865;50.232;18.614;2022-11-15T09:17:32;8.00;99.90
73586;DHT22;61865;50.232;18.614;2022-11-15T09:19:54;8.20;99.90
73586;DHT22;61865;50.232;18.614;2022-11-15T09:22:15;8.40;99.90
73586;DHT22;61865;50.232;18.614;2022-11-15T09:24:39;8.70;99.90
73586;DHT22;61865;50.232;18.614;2022-11-15T09:27:04;9.00;99.90
73586;DHT22;61865;50.232;18.614;2022-11-15T09:29:27;9.20;99.90
73586;DHT22;61865;50.232;18.614;2022-11-15T09:31:51;9.50;99.90
73586;DHT22;61865;50.232;18.614;2022-11-15T09:34:13;9.90;99.90
73586;DHT22;61865;50.232;18.614;2022-11-15T09:36:34;10.20;99.90
73586;DHT22;61865;50.232;18.614;2022-11-15T09:38:57;10.40;99.90
73586;DHT22;61865;50.232;18.614;2022-11-15T09:41:26;10.70;99.90
73586;DHT22;61865;50.232;18.614;2022-11-15T09:43:53;10.90;99.90
73586;DHT22;61865;50.232;18.614;2022-11-15T09:46:22;11.10;99.90
73586;DHT22;61865;50.232;18.614;2022-11-15T09:48:49;11.20;99.90
73586;DHT22;61865;50.232;18.614;2022-11-15T09:51:14;11.30;99.90
73586;DHT22;61865;50.232;18.614;2022-11-15T09:53:40;11.50;99.90
73586;DHT22;61865;50.232;18.614;2022-11-15T09:56:03;11.60;99.90
73586;DHT22;61865;50.232;18.614;2022-11-15T09:58:26;11.70;99.90
73586;DHT22;61865;50.232;18.614;2022-11-15T10:00:51;11.80;99.90
73586;DHT22;61865;50.232;18.614;2022-11-15T10:03:16;11.90;99.90
73586;DHT22;61865;50.232;18.614;2022-11-15T10:05:40;12.00;99.90
73586;DHT22;61865;50.232;18.614;2022-11-15T10:08:03;12.00;99.90
73586;DHT22;61865;50.232;18.614;2022-11-15T10:10:29;12.00;99.90
73586;DHT22;61865;50.232;18.614;2022-11-15T10:12:52;11.90;99.90
73586;DHT22;61865;50.232;18.614;2022-11-15T10:15:15;11.90;99.90
73586;DHT22;61865;50.232;18.614;2022-11-15T10:17:41;11.90;99.90
73586;DHT22;61865;50.232;18.614;2022-11-15T10:20:10;11.80;99.90
73586;DHT22;61865;50.232;18.614;2022-11-15T10:22:35;11.70;99.90
73586;DHT22;61865;50.232;18.614;2022-11-15T10:25:00;11.60;99.90
73586;DHT22;61865;50.232;18.614;2022-11-15T10:27:28;11.50;99.90
73586;DHT22;61865;50.232;18.614;2022-11-15T10:29:50;11.40;99.90
73586;DHT22;61865;50.232;18.614;2022-11-15T10:32:12;11.40;99.90
73586;DHT22;61865;50.232;18.614;2022-11-15T10:34:35;11.30;99.90
73586;DHT22;61865;50.232;18.614;2022-11-15T10:36:59;11.20;99.90
73586;DHT22;61865;50.232;18.614;2022-11-15T10:39:22;11.20;99.90
73586;DHT22;61865;50.232;18.614;2022-11-15T10:41:44;11.30;99.90
73586;DHT22;61865;50.232;18.614;2022-11-15T10:44:17;11.30;99.90
73586;DHT22;61865;50.232;18.614;2022-11-15T10:46:40;11.30;99.90
73586;DHT22;61865;50.232;18.614;2022-11-15T10:49:11;11.30;99.90
73586;DHT22;61865;50.232;18.614;2022-11-15T10:51:33;11.30;99.90
73586;DHT22;61865;50.232;18.614;2022-11-15T10:54:03;11.40;99.90
73586;DHT22;61865;50.232;18.614;2022-11-15T10:56:27;11.40;99.90
73586;DHT22;61865;50.232;18.614;2022-11-15T10:58:50;11.40;99.90
73586;DHT22;61865;50.232;18.614;2022-11-15T11:01:16;11.50;99.90
73586;DHT22;61865;50.232;18.614;2022-11-15T11:03:38;11.40;99.90
73586;DHT22;61865;50.232;18.614;2022-11-15T11:06:03;11.40;99.90
73586;DHT22;61865;50.232;18.614;2022-11-15T11:08:25;11.50;99.90
73586;DHT22;61865;50.232;18.614;2022-11-15T11:10:53;11.50;99.90
73586;DHT22;61865;50.232;18.614;2022-11-15T11:13:20;11.60;99.90
73586;DHT22;61865;50.232;18.614;2022-11-15T11:15:43;11.60;99.90
73586;DHT22;61865;50.232;18.614;2022-11-15T11:18:07;11.70;99.90
73586;DHT22;61865;50.232;18.614;2022-11-15T11:20:32;11.80;99.90
73586;DHT22;61865;50.232;18.614;2022-11-15T11:22:58;11.80;99.90
73586;DHT22;61865;50.232;18.614;2022-11-15T11:25:24;11.90;99.90
73586;DHT22;61865;50.232;18.614;2022-11-15T11:27:52;12.10;99.90
73586;DHT22;61865;50.232;18.614;2022-11-15T11:30:17;12.30;99.90
73586;DHT22;61865;50.232;18.614;2022-11-15T11:32:43;12.50;99.90
73586;DHT22;61865;50.232;18.614;2022-11-15T11:35:09;12.60;99.90
73586;DHT22;61865;50.232;18.614;2022-11-15T11:37:35;12.80;99.90
73586;DHT22;61865;50.232;18.614;2022-11-15T11:40:01;13.00;99.90
73586;DHT22;61865;50.232;18.614;2022-11-15T11:42:30;13.20;99.90
73586;DHT22;61865;50.232;18.614;2022-11-15T11:44:57;13.30;99.90
73586;DHT22;61865;50.232;18.614;2022-11-15T11:47:23;13.30;99.90
73586;DHT22;61865;50.232;18.614;2022-11-15T11:49:46;13.30;99.90
73586;DHT22;61865;50.232;18.614;2022-11-15T11:52:11;13.30;99.90
73586;DHT22;61865;50.232;18.614;2022-11-15T11:54:37;13.30;99.90
73586;DHT22;61865;50.232;18.614;2022-11-15T11:57:05;13.30;99.90
73586;DHT22;61865;50.232;18.614;2022-11-15T11:59:28;13.30;99.90
73586;DHT22;61865;50.232;18.614;2022-11-15T12:01:53;13.30;99.90
73586;DHT22;61865;50.232;18.614;2022-11-15T12:04:16;13.30;99.90
73586;DHT22;61865;50.232;18.614;2022-11-15T12:06:41;13.40;99.90
73586;DHT22;61865;50.232;18.614;2022-11-15T12:09:04;13.40;99.90
73586;DHT22;61865;50.232;18.614;2022-11-15T12:11:29;13.40;99.90
73586;DHT22;61865;50.232;18.614;2022-11-15T12:13:56;13.40;99.90
73586;DHT22;61865;50.232;18.614;2022-11-15T12:16:20;13.40;99.90
73586;DHT22;61865;50.232;18.614;2022-11-15T12:18:44;13.40;99.90
73586;DHT22;61865;50.232;18.614;2022-11-15T12:21:08;13.50;99.90
73586;DHT22;61865;50.232;18.614;2022-11-15T12:23:37;13.50;99.90
73586;DHT22;61865;50.232;18.614;2022-11-15T12:26:01;13.50;99.90
73586;DHT22;61865;50.232;18.614;2022-11-15T12:28:25;13.60;99.90
73586;DHT22;61865;50.232;18.614;2022-11-15T12:30:51;13.50;99.90
73586;DHT22;61865;50.232;18.614;2022-11-15T12:33:34;13.60;99.90
73586;DHT22;61865;50.232;18.614;2022-11-15T12:36:01;13.60;99.90
73586;DHT22;61865;50.232;18.614;2022-11-15T12:41:13;13.60;99.90
73586;DHT22;61865;50.232;18.614;2022-11-15T12:43:37;13.60;99.90
73586;DHT22;61865;50.232;18.614;2022-11-15T12:46:01;13.70;99.90
73586;DHT22;61865;50.232;18.614;2022-11-15T12:52:03;13.70;99.90
73586;DHT22;61865;50.232;18.614;2022-11-15T12:56:45;13.80;99.90
73586;DHT22;61865;50.232;18.614;2022-11-15T12:59:06;13.70;99.90
73586;DHT22;61865;50.232;18.614;2022-11-15T13:04:15;13.80;99.90
73586;DHT22;61865;50.232;18.614;2022-11-15T13:06:45;13.80;99.90
73586;DHT22;61865;50.232;18.614;2022-11-15T13:11:54;13.70;99.90
73586;DHT22;61865;50.232;18.614;2022-11-15T13:16:56;13.70;99.90
73586;DHT22;61865;50.232;18.614;2022-11-15T13:19:19;13.70;99.90
73586;DHT22;61865;50.232;18.614;2022-11-15T13:21:47;13.60;99.90
73586;DHT22;61865;50.232;18.614;2022-11-15T13:24:27;13.70;99.90
73586;DHT22;61865;50.232;18.614;2022-11-15T13:26:49;13.60;99.90
73586;DHT22;61865;50.232;18.614;2022-11-15T13:29:18;13.60;99.90
73586;DHT22;61865;50.232;18.614;2022-11-15T13:31:41;13.70;99.90
73586;DHT22;61865;50.232;18.614;2022-11-15T13:34:12;13.60;99.90
73586;DHT22;61865;50.232;18.614;2022-11-15T13:36:37;13.60;99.90
73586;DHT22;61865;50.232;18.614;2022-11-15T13:38:59;13.60;99.90
73586;DHT22;61865;50.232;18.614;2022-11-15T13:41:22;13.60;99.90
73586;DHT22;61865;50.232;18.614;2022-11-15T13:43:44;13.50;99.90
73586;DHT22;61865;50.232;18.614;2022-11-15T13:46:10;13.50;99.90
73586;DHT22;61865;50.232;18.614;2022-11-15T13:48:32;13.50;99.90
73586;DHT22;61865;50.232;18.614;2022-11-15T13:50:54;13.50;99.90
73586;DHT22;61865;50.232;18.614;2022-11-15T13:53:17;13.50;99.90
73586;DHT22;61865;50.232;18.614;2022-11-15T13:55:39;13.40;99.90
73586;DHT22;61865;50.232;18.614;2022-11-15T13:58:01;13.30;99.90
73586;DHT22;61865;50.232;18.614;2022-11-15T14:00:27;13.30;99.90
73586;DHT22;61865;50.232;18.614;2022-11-15T14:02:51;13.20;99.90
73586;DHT22;61865;50.232;18.614;2022-11-15T14:05:14;13.20;99.90
73586;DHT22;61865;50.232;18.614;2022-11-15T14:07:36;13.10;99.90
73586;DHT22;61865;50.232;18.614;2022-11-15T14:09:59;13.00;99.90
73586;DHT22;61865;50.232;18.614;2022-11-15T14:12:38;13.00;99.90
73586;DHT22;61865;50.232;18.614;2022-11-15T14:15:01;13.00;99.90
73586;DHT22;61865;50.232;18.614;2022-11-15T14:17:33;13.00;99.90
73586;DHT22;61865;50.232;18.614;2022-11-15T14:19:56;12.90;99.90
73586;DHT22;61865;50.232;18.614;2022-11-15T14:22:19;12.90;99.90
73586;DHT22;61865;50.232;18.614;2022-11-15T14:24:43;12.90;99.90
73586;DHT22;61865;50.232;18.614;2022-11-15T14:27:21;12.80;99.90
73586;DHT22;61865;50.232;18.614;2022-11-15T14:29:43;12.70;99.90
73586;DHT22;61865;50.232;18.614;2022-11-15T14:32:05;12.80;99.90
73586;DHT22;61865;50.232;18.614;2022-11-15T14:34:33;12.70;99.90
73586;DHT22;61865;50.232;18.614;2022-11-15T14:36:56;12.40;99.90
73586;DHT22;61865;50.232;18.614;2022-11-15T14:39:17;12.20;99.90
73586;DHT22;61865;50.232;18.614;2022-11-15T14:41:39;12.10;99.90
73586;DHT22;61865;50.232;18.614;2022-11-15T14:44:01;12.00;99.90
73586;DHT22;61865;50.232;18.614;2022-11-15T14:46:23;11.90;99.90
73586;DHT22;61865;50.232;18.614;2022-11-15T14:48:45;11.80;99.90
73586;DHT22;61865;50.232;18.614;2022-11-15T14:51:09;11.80;99.90
73586;DHT22;61865;50.232;18.614;2022-11-15T14:53:34;11.80;99.90
73586;DHT22;61865;50.232;18.614;2022-11-15T14:55:55;11.80;99.90
73586;DHT22;61865;50.232;18.614;2022-11-15T14:58:17;11.60;99.90
73586;DHT22;61865;50.232;18.614;2022-11-15T15:00:39;11.60;99.90
73586;DHT22;61865;50.232;18.614;2022-11-15T15:03:01;11.60;99.90
73586;DHT22;61865;50.232;18.614;2022-11-15T15:05:24;11.60;99.90
73586;DHT22;61865;50.232;18.614;2022-11-15T15:07:46;11.60;99.90
73586;DHT22;61865;50.232;18.614;2022-11-15T15:10:09;11.60;99.90
73586;DHT22;61865;50.232;18.614;2022-11-15T15:12:31;11.60;99.90
73586;DHT22;61865;50.232;18.614;2022-11-15T15:14:53;11.60;99.90
73586;DHT22;61865;50.232;18.614;2022-11-15T15:17:15;11.50;99.90
73586;DHT22;61865;50.232;18.614;2022-11-15T15:19:37;11.50;99.90
73586;DHT22;61865;50.232;18.614;2022-11-15T15:21:59;11.50;99.90
73586;DHT22;61865;50.232;18.614;2022-11-15T15:24:21;11.50;99.90